Time;durP1;ratioP1;P1;durP2;ratioP2;P2;SDS_P1;SDS_P2;PMS_P1;PMS_P2;Temp;Humidity;BMP_temperature;BMP_pressure;BME280_temperature;BME280_humidity;BME280_pressure;Samples;Min_cycle;Max_cycle;Signal;HPM_P1;HPM_P2
2022/12/19 00:01:41;;;;;;;2.23;2.03;;;-3.90;97.30;;;;;;4992337;28;20189;-86
2022/12/19 00:04:11;;;;;;;9.27;3.63;;;-3.90;97.30;;;;;;4988885;28;20228;-86
2022/12/19 00:06:38;;;;;;;7.33;3.00;;;-3.90;97.30;;;;;;4992008;28;20181;-87
2022/12/19 00:09:04;;;;;;;14.40;6.00;;;-3.90;97.30;;;;;;4998579;28;20424;-86
2022/12/19 00:11:30;;;;;;;5.70;3.10;;;-3.90;97.30;;;;;;5009501;28;20427;-86
2022/12/19 00:13:56;;;;;;;5.70;4.40;;;-3.90;97.30;;;;;;5005621;28;20420;-86
2022/12/19 00:16:27;;;;;;;8.13;4.27;;;-3.90;97.30;;;;;;4999959;28;20423;-86
2022/12/19 00:18:55;;;;;;;3.60;3.23;;;-3.90;97.30;;;;;;5022671;28;20952;-86
2022/12/19 00:21:23;;;;;;;10.60;5.10;;;-3.90;97.30;;;;;;5009712;28;20420;-86
2022/12/19 00:23:49;;;;;;;3.20;3.03;;;-3.90;97.30;;;;;;4979214;28;20502;-86
2022/12/19 00:26:19;;;;;;;4.57;4.27;;;-3.90;97.30;;;;;;4991727;28;20439;-87
2022/12/19 00:28:48;;;;;;;2.07;1.93;;;-3.90;97.30;;;;;;4979847;28;20416;-86
2022/12/19 00:31:15;;;;;;;3.43;3.30;;;-3.90;97.30;;;;;;4991648;28;20420;-86
2022/12/19 00:33:41;;;;;;;2.27;2.07;;;-3.90;97.30;;;;;;4992259;28;20798;-87
2022/12/19 00:36:10;;;;;;;2.13;1.73;;;-3.90;97.30;;;;;;4990740;28;20525;-86
2022/12/19 00:38:36;;;;;;;4.23;2.40;;;-3.90;97.30;;;;;;4995701;28;20877;-86
2022/12/19 00:41:10;;;;;;;3.47;3.27;;;-3.80;97.30;;;;;;4995269;28;20428;-87
2022/12/19 00:43:36;;;;;;;4.60;3.53;;;-3.80;97.30;;;;;;4995764;28;20181;-86
2022/12/19 00:46:06;;;;;;;1.63;1.60;;;-3.80;97.30;;;;;;4993587;28;20538;-86
2022/12/19 00:48:32;;;;;;;3.80;3.30;;;-3.80;97.30;;;;;;5004602;28;20196;-86
2022/12/19 00:51:06;;;;;;;2.87;1.70;;;-3.80;97.30;;;;;;4999955;28;20420;-86
2022/12/19 00:53:32;;;;;;;2.70;2.50;;;-3.80;97.30;;;;;;4996087;28;20424;-86
2022/12/19 00:56:06;;;;;;;1.60;1.50;;;-3.80;97.30;;;;;;4997190;28;20443;-86
2022/12/19 00:58:32;;;;;;;3.00;2.83;;;-3.80;97.30;;;;;;4995720;28;20523;-86
2022/12/19 01:00:57;;;;;;;2.60;2.40;;;-3.80;97.30;;;;;;4994929;28;20491;-86
2022/12/19 01:03:24;;;;;;;4.87;2.83;;;-3.80;97.30;;;;;;5006083;28;20659;-86
2022/12/19 01:05:50;;;;;;;3.50;2.90;;;-3.80;97.30;;;;;;4995522;28;20232;-86
2022/12/19 01:08:16;;;;;;;2.60;2.40;;;-3.80;97.30;;;;;;4996910;28;20432;-86
2022/12/19 01:10:46;;;;;;;2.97;2.77;;;-3.70;97.30;;;;;;4994720;28;20962;-86
2022/12/19 01:13:11;;;;;;;4.20;2.37;;;-3.80;97.30;;;;;;4993106;28;20545;-86
2022/12/19 01:15:40;;;;;;;8.23;3.57;;;-3.80;97.30;;;;;;4998980;28;20442;-86
2022/12/19 01:18:08;;;;;;;3.03;2.90;;;-3.80;97.30;;;;;;5000744;28;20185;-86
2022/12/19 01:20:42;;;;;;;8.60;3.20;;;-3.80;97.30;;;;;;5011619;28;20423;-86
2022/12/19 01:23:09;;;;;;;4.73;1.73;;;-3.80;97.30;;;;;;4999395;28;20792;-86
2022/12/19 01:25:36;;;;;;;2.70;2.50;;;-3.80;97.30;;;;;;4983731;28;20476;-86
2022/12/19 01:28:04;;;;;;;1.90;1.80;;;-3.80;97.30;;;;;;5004937;28;20423;-86
2022/12/19 01:30:29;;;;;;;3.43;2.87;;;-3.80;97.30;;;;;;4994543;28;20416;-85
2022/12/19 01:32:56;;;;;;;8.30;2.70;;;-3.70;97.30;;;;;;5023005;28;20420;-86
2022/12/19 01:35:22;;;;;;;2.43;2.23;;;-3.70;97.30;;;;;;5001549;28;20432;-86
2022/12/19 01:37:49;;;;;;;2.50;2.30;;;-3.70;97.30;;;;;;4998280;28;20968;-86
2022/12/19 01:40:14;;;;;;;6.80;2.33;;;-3.70;97.30;;;;;;4994595;28;20177;-86
2022/12/19 01:42:40;;;;;;;1.63;1.57;;;-3.70;97.30;;;;;;4993926;28;21005;-86
2022/12/19 01:45:08;;;;;;;6.53;2.80;;;-3.70;97.30;;;;;;4991454;28;20205;-86
2022/12/19 01:47:46;;;;;;;4.17;3.93;;;-3.80;97.30;;;;;;5019905;28;20180;-86
2022/12/19 01:50:18;;;;;;;14.97;6.03;;;-3.80;97.30;;;;;;5002633;28;20423;-86
2022/12/19 01:52:44;;;;;;;10.63;4.40;;;-3.80;97.30;;;;;;4996729;28;20431;-86
2022/12/19 01:55:13;;;;;;;3.23;2.70;;;-3.80;97.30;;;;;;5003234;28;20475;-86
2022/12/19 01:57:39;;;;;;;5.70;3.07;;;-3.80;97.30;;;;;;5015298;28;20427;-86
2022/12/19 02:00:08;;;;;;;6.93;2.97;;;-3.80;97.30;;;;;;5020692;28;20961;-86
2022/12/19 02:02:47;;;;;;;4.97;4.67;;;-3.80;97.30;;;;;;5000236;28;20942;-86
2022/12/19 02:05:13;;;;;;;2.20;2.00;;;-3.80;97.30;;;;;;5000083;28;20922;-86
2022/12/19 02:07:40;;;;;;;2.17;2.00;;;-3.80;97.30;;;;;;4996982;28;20564;-86
2022/12/19 02:10:06;;;;;;;8.80;3.73;;;-3.80;97.30;;;;;;4990736;28;20421;-86
2022/12/19 02:12:36;;;;;;;1.50;1.40;;;-3.70;97.30;;;;;;4982361;28;20431;-85
2022/12/19 02:15:03;;;;;;;11.57;4.40;;;-3.70;97.30;;;;;;4994367;28;20197;-85
2022/12/19 02:18:06;;;;;;;5.40;2.80;;;-3.60;97.30;;;;;;4995053;28;20981;-86
2022/12/19 02:20:50;;;;;;;4.10;3.93;;;-3.60;97.30;;;;;;4962427;28;20423;-82
2022/12/19 02:23:43;;;;;;;3.00;2.80;;;-3.50;97.30;;;;;;4996175;28;20800;-82
2022/12/19 02:26:43;;;;;;;2.77;2.50;;;-3.50;97.30;;;;;;5008713;28;20515;-85
2022/12/19 02:29:30;;;;;;;1.20;1.10;;;-3.40;97.30;;;;;;4994304;28;20459;-85
2022/12/19 02:32:14;;;;;;;1.57;1.47;;;-3.40;97.30;;;;;;5004648;28;20921;-85
2022/12/19 02:34:57;;;;;;;1.20;1.10;;;-3.30;97.30;;;;;;5001338;28;20459;-86
2022/12/19 02:37:28;;;;;;;5.07;3.27;;;-3.20;97.30;;;;;;5014100;28;20423;-84
2022/12/19 02:39:58;;;;;;;1.50;1.40;;;-3.10;97.30;;;;;;5004225;28;20419;-86
2022/12/19 02:42:31;;;;;;;6.57;3.27;;;-3.00;97.30;;;;;;4998267;28;20953;-83
2022/12/19 02:44:58;;;;;;;3.03;1.70;;;-3.00;97.30;;;;;;5005419;28;20463;-85
2022/12/19 02:47:23;;;;;;;4.53;4.23;;;-2.90;97.30;;;;;;4997048;28;20416;-86
2022/12/19 02:49:49;;;;;;;3.70;2.10;;;-2.90;97.30;;;;;;5012616;28;20412;-86
2022/12/19 02:52:18;;;;;;;3.80;3.33;;;-2.90;97.30;;;;;;4995447;28;20177;-84
2022/12/19 02:54:44;;;;;;;3.63;3.23;;;-2.90;97.30;;;;;;4997824;28;20193;-83
2022/12/19 02:57:24;;;;;;;18.03;5.20;;;-2.80;97.30;;;;;;5014261;28;20415;-82
2022/12/19 03:00:11;;;;;;;2.37;2.17;;;-2.80;97.30;;;;;;5012848;28;20430;-84
2022/12/19 03:03:09;;;;;;;4.83;3.70;;;-2.80;97.30;;;;;;5016353;28;21064;-81
2022/12/19 03:05:45;;;;;;;2.20;1.57;;;-2.80;97.30;;;;;;5007408;28;21024;-86
2022/12/19 03:08:16;;;;;;;2.77;1.93;;;-2.70;97.30;;;;;;4983355;28;20470;-84
2022/12/19 03:10:59;;;;;;;2.90;2.50;;;-2.70;97.30;;;;;;5013927;28;20408;-83
2022/12/19 03:13:33;;;;;;;6.27;2.57;;;-2.70;97.30;;;;;;5011318;28;20426;-83
2022/12/19 03:16:00;;;;;;;1.57;1.47;;;-2.70;97.30;;;;;;5014145;28;20447;-85
2022/12/19 03:18:26;;;;;;;4.57;2.70;;;-2.60;97.30;;;;;;5012164;28;20412;-82
2022/12/19 03:21:04;;;;;;;1.40;1.30;;;-2.40;97.30;;;;;;5011824;28;20608;-82
2022/12/19 03:23:30;;;;;;;1.13;1.03;;;-2.20;97.30;;;;;;5001525;28;20783;-85
2022/12/19 03:26:05;;;;;;;2.30;1.77;;;-2.00;97.30;;;;;;5001920;28;20439;-83
2022/12/19 03:28:44;;;;;;;2.30;2.10;;;-1.80;97.30;;;;;;4998272;28;20455;-83
2022/12/19 03:31:12;;;;;;;1.50;1.40;;;-1.40;97.30;;;;;;4996141;28;20416;-87
2022/12/19 03:33:40;;;;;;;3.27;3.07;;;-1.20;97.30;;;;;;4996519;28;20809;-82
2022/12/19 03:36:09;;;;;;;1.80;1.70;;;-1.00;97.10;;;;;;4996557;28;20810;-87
2022/12/19 03:38:37;;;;;;;1.10;1.00;;;-0.90;97.00;;;;;;4997824;28;20412;-87
2022/12/19 03:41:05;;;;;;;3.97;3.77;;;-0.90;96.50;;;;;;5014016;28;20416;-87
2022/12/19 03:43:32;;;;;;;2.60;2.40;;;-0.80;96.50;;;;;;4997161;28;20953;-86
2022/12/19 03:46:19;;;;;;;2.07;1.93;;;-0.70;96.00;;;;;;4996521;28;20439;-83
2022/12/19 03:48:47;;;;;;;2.57;1.93;;;-0.60;95.60;;;;;;4985626;28;20491;-88
2022/12/19 03:51:24;;;;;;;4.10;2.13;;;-0.60;95.50;;;;;;5001606;28;20408;-86
2022/12/19 03:54:05;;;;;;;3.23;3.03;;;-0.60;95.40;;;;;;4996221;28;20950;-84
2022/12/19 03:57:05;;;;;;;2.13;1.97;;;-0.50;95.00;;;;;;4995969;28;20422;-83
2022/12/19 03:59:33;;;;;;;5.23;1.87;;;-0.50;94.90;;;;;;4995254;28;20408;-85
2022/12/19 04:02:01;;;;;;;1.77;1.73;;;-0.50;95.00;;;;;;5001391;28;20486;-87
2022/12/19 04:04:27;;;;;;;6.20;3.27;;;-0.50;95.20;;;;;;4993488;28;20467;-84
2022/12/19 04:06:54;;;;;;;8.17;2.43;;;-0.50;95.00;;;;;;4996098;28;20573;-84
2022/12/19 04:09:22;;;;;;;1.10;1.00;;;-0.50;95.10;;;;;;4985430;28;20516;-83
2022/12/19 04:11:52;;;;;;;5.53;2.60;;;-0.50;95.00;;;;;;4995139;28;20558;-86
2022/12/19 04:14:27;;;;;;;2.70;2.60;;;-0.50;95.20;;;;;;5000676;28;20447;-86
2022/12/19 04:17:03;;;;;;;1.00;0.90;;;-0.50;95.50;;;;;;4991411;28;20430;-88
2022/12/19 04:19:54;;;;;;;8.13;4.43;;;-0.50;95.30;;;;;;4999411;28;20424;-87
2022/12/19 04:22:34;;;;;;;3.13;3.00;;;-0.50;95.80;;;;;;5000503;28;20466;-88
2022/12/19 04:25:08;;;;;;;3.83;3.17;;;-0.50;95.90;;;;;;4999701;28;20888;-87
2022/12/19 04:27:35;;;;;;;2.30;2.10;;;-0.50;95.80;;;;;;4986184;28;20413;-85
2022/12/19 04:30:02;;;;;;;7.80;4.93;;;-0.50;95.70;;;;;;4998755;28;20474;-85
2022/12/19 04:32:29;;;;;;;9.53;3.00;;;-0.50;95.70;;;;;;4999801;28;20423;-84
2022/12/19 04:34:54;;;;;;;3.17;2.97;;;-0.50;95.60;;;;;;4998530;28;20558;-87
2022/12/19 04:37:20;;;;;;;2.87;2.27;;;-0.50;95.60;;;;;;5016211;28;20513;-87
2022/12/19 04:39:45;;;;;;;11.43;2.63;;;-0.50;95.60;;;;;;4997619;28;20185;-86
2022/12/19 04:42:11;;;;;;;4.97;3.90;;;-0.50;95.20;;;;;;4998669;28;20277;-87
2022/12/19 04:44:36;;;;;;;4.40;2.50;;;-0.50;95.30;;;;;;4987836;28;20216;-87
2022/12/19 04:47:02;;;;;;;2.40;2.23;;;-0.50;95.50;;;;;;4997497;28;20188;-84
2022/12/19 04:49:28;;;;;;;4.40;2.13;;;-0.50;95.30;;;;;;5016799;28;20267;-84
2022/12/19 04:51:53;;;;;;;2.50;2.30;;;-0.60;95.40;;;;;;4986997;28;20216;-85
2022/12/19 04:54:20;;;;;;;1.23;1.07;;;-0.60;95.30;;;;;;5011093;28;20205;-86
2022/12/19 04:56:45;;;;;;;4.10;3.87;;;-0.60;95.40;;;;;;4998851;28;20185;-89
2022/12/19 04:59:11;;;;;;;3.60;3.40;;;-0.70;95.30;;;;;;4998642;28;20422;-88
2022/12/19 05:01:36;;;;;;;2.77;2.57;;;-0.70;95.70;;;;;;5004720;28;20181;-87
2022/12/19 05:04:02;;;;;;;2.90;1.77;;;-0.70;95.70;;;;;;5018035;28;20200;-88
2022/12/19 05:06:27;;;;;;;3.03;2.40;;;-0.70;95.70;;;;;;4999397;28;20173;-83
2022/12/19 05:08:53;;;;;;;2.50;2.30;;;-0.70;95.60;;;;;;5005911;28;20264;-86
2022/12/19 05:11:18;;;;;;;3.20;3.00;;;-0.60;95.60;;;;;;5030028;28;20180;-86
2022/12/19 05:13:44;;;;;;;2.27;2.07;;;-0.60;95.90;;;;;;5017715;28;20271;-82
2022/12/19 05:16:11;;;;;;;2.87;2.20;;;-0.60;95.90;;;;;;5004562;28;20253;-87
2022/12/19 05:18:38;;;;;;;5.63;2.47;;;-0.60;95.70;;;;;;5003464;28;20189;-86
2022/12/19 05:21:04;;;;;;;2.17;2.00;;;-0.50;95.50;;;;;;5012564;28;20424;-88
2022/12/19 05:23:30;;;;;;;1.90;1.77;;;-0.50;95.70;;;;;;5006594;28;20420;-84
2022/12/19 05:26:00;;;;;;;4.50;1.63;;;-0.50;95.50;;;;;;5013687;28;20531;-87
2022/12/19 05:28:26;;;;;;;1.53;1.47;;;-0.40;95.30;;;;;;5016880;28;20188;-90
2022/12/19 05:31:00;;;;;;;2.07;1.93;;;-0.40;95.40;;;;;;5014885;28;20413;-87
2022/12/19 05:33:27;;;;;;;6.77;4.87;;;-0.40;95.30;;;;;;5017055;28;20419;-85
2022/12/19 05:35:53;;;;;;;8.70;3.97;;;-0.30;95.30;;;;;;5006907;28;20529;-83
2022/12/19 05:38:18;;;;;;;4.37;2.80;;;-0.30;95.50;;;;;;5017332;23;21051;-89
2022/12/19 05:40:44;;;;;;;2.30;1.97;;;-0.30;95.50;;;;;;4994833;28;20672;-85
2022/12/19 05:43:09;;;;;;;4.10;2.73;;;-0.30;95.70;;;;;;4998541;28;20169;-88
2022/12/19 05:45:35;;;;;;;5.03;2.20;;;-0.30;95.90;;;;;;4988517;28;20227;-86
2022/12/19 05:48:00;;;;;;;3.73;3.53;;;-0.30;96.00;;;;;;5006924;28;20213;-86
2022/12/19 05:50:26;;;;;;;6.07;5.77;;;-0.30;95.80;;;;;;4994654;28;20181;-85
2022/12/19 05:52:51;;;;;;;4.03;3.77;;;-0.20;95.70;;;;;;4994898;28;20188;-86
2022/12/19 05:55:17;;;;;;;2.33;1.70;;;-0.20;95.40;;;;;;4981403;28;20185;-86
2022/12/19 05:57:42;;;;;;;7.90;3.03;;;-0.20;95.50;;;;;;4994421;28;20181;-85
2022/12/19 06:00:08;;;;;;;3.30;2.50;;;-0.20;95.40;;;;;;4993909;28;20694;-85
2022/12/19 06:02:34;;;;;;;8.13;3.80;;;-0.20;95.80;;;;;;4993887;28;20242;-86
2022/12/19 06:04:59;;;;;;;2.70;2.50;;;-0.20;95.90;;;;;;4989860;28;20467;-87
2022/12/19 06:07:25;;;;;;;4.47;3.63;;;-0.20;95.70;;;;;;4987656;28;20422;-86
2022/12/19 06:09:50;;;;;;;2.17;2.00;;;-0.20;95.70;;;;;;5007770;28;20212;-85
2022/12/19 06:12:16;;;;;;;5.73;2.53;;;-0.20;96.00;;;;;;4996376;28;20790;-86
2022/12/19 06:14:41;;;;;;;3.77;3.47;;;-0.20;96.20;;;;;;5012723;28;20382;-87
2022/12/19 06:17:07;;;;;;;9.77;5.53;;;-0.20;96.40;;;;;;4994104;28;20189;-88
2022/12/19 06:19:32;;;;;;;2.67;2.47;;;-0.20;96.50;;;;;;5018896;28;20197;-87
2022/12/19 06:21:58;;;;;;;3.33;3.17;;;-0.20;96.40;;;;;;4993567;28;20557;-87
2022/12/19 06:24:24;;;;;;;2.83;2.63;;;-0.20;96.30;;;;;;4988954;28;20291;-87
2022/12/19 06:26:50;;;;;;;7.00;2.60;;;-0.20;96.30;;;;;;4997716;28;20169;-86
2022/12/19 06:29:15;;;;;;;9.80;2.80;;;-0.20;96.30;;;;;;4987960;28;20462;-88
2022/12/19 06:31:41;;;;;;;4.50;4.20;;;-0.20;96.30;;;;;;4996895;28;20272;-87
2022/12/19 06:34:09;;;;;;;5.83;3.10;;;-0.20;96.50;;;;;;4999162;28;20204;-87
2022/12/19 06:36:34;;;;;;;1.80;1.70;;;-0.10;96.50;;;;;;4997343;28;20236;-87
2022/12/19 06:39:00;;;;;;;2.23;2.07;;;-0.10;96.50;;;;;;4999385;28;20476;-86
2022/12/19 06:44:12;;;;;;;3.93;2.77;;;-0.20;96.70;;;;;;5009425;28;20698;-86
2022/12/19 06:46:39;;;;;;;8.13;5.13;;;-0.20;96.80;;;;;;4992869;28;20518;-87
2022/12/19 06:49:04;;;;;;;2.93;2.37;;;-0.20;96.80;;;;;;5007731;28;20450;-86
2022/12/19 06:51:30;;;;;;;1.63;1.53;;;-0.20;97.10;;;;;;5009376;28;20412;-87
2022/12/19 06:53:56;;;;;;;5.30;3.50;;;-0.20;97.20;;;;;;4993564;28;20510;-86
2022/12/19 06:56:22;;;;;;;10.33;3.17;;;-0.20;97.30;;;;;;5025677;28;20248;-87
2022/12/19 06:58:48;;;;;;;3.17;1.80;;;-0.20;97.30;;;;;;4992870;28;20452;-86
2022/12/19 07:01:19;;;;;;;3.90;3.70;;;-0.20;97.30;;;;;;4987612;28;20416;-87
2022/12/19 07:03:46;;;;;;;4.37;3.10;;;-0.20;97.30;;;;;;4995684;28;20181;-85
2022/12/19 07:06:12;;;;;;;4.20;2.20;;;-0.20;97.30;;;;;;4995838;28;20895;-86
2022/12/19 07:08:37;;;;;;;3.47;2.00;;;-0.20;97.30;;;;;;4996000;28;20472;-87
2022/12/19 07:11:03;;;;;;;2.17;2.00;;;-0.20;97.30;;;;;;5004999;28;20467;-87
2022/12/19 07:13:29;;;;;;;4.30;2.70;;;-0.20;97.30;;;;;;5003667;28;20191;-87
2022/12/19 07:15:59;;;;;;;7.87;5.23;;;-0.20;97.30;;;;;;5015173;28;20169;-85
2022/12/19 07:18:25;;;;;;;6.43;4.53;;;-0.20;97.30;;;;;;4987398;28;20708;-87
2022/12/19 07:20:51;;;;;;;4.40;3.17;;;-0.20;97.30;;;;;;4989972;28;20432;-87
2022/12/19 07:23:19;;;;;;;5.47;3.80;;;-0.10;97.30;;;;;;4989403;28;20408;-88
2022/12/19 07:25:45;;;;;;;3.07;2.87;;;-0.10;97.30;;;;;;5009401;28;20224;-87
2022/12/19 07:28:11;;;;;;;2.37;2.10;;;-0.10;97.30;;;;;;4987966;28;20453;-88
2022/12/19 07:30:36;;;;;;;3.33;2.03;;;-0.10;97.30;;;;;;4988686;28;20177;-86
2022/12/19 07:33:02;;;;;;;4.10;3.47;;;-0.10;97.30;;;;;;4996004;28;20234;-87
2022/12/19 07:35:28;;;;;;;3.00;2.80;;;-0.10;97.30;;;;;;4992319;28;20189;-88
2022/12/19 07:37:53;;;;;;;1.77;1.67;;;0.00;97.30;;;;;;4986044;28;20683;-87
2022/12/19 07:40:19;;;;;;;9.03;4.20;;;0.00;97.30;;;;;;4986316;28;20606;-87
2022/12/19 07:42:45;;;;;;;3.47;3.27;;;0.00;97.30;;;;;;4989528;28;20382;-88
2022/12/19 07:45:11;;;;;;;6.10;4.40;;;0.00;96.90;;;;;;4989774;28;20467;-88
2022/12/19 07:47:36;;;;;;;4.10;3.17;;;0.10;96.90;;;;;;4996235;28;20669;-86
2022/12/19 07:50:02;;;;;;;4.60;4.30;;;0.10;96.90;;;;;;4997424;28;20545;-88
2022/12/19 07:52:28;;;;;;;4.80;2.17;;;0.20;96.70;;;;;;4997224;28;20241;-86
2022/12/19 07:54:53;;;;;;;6.17;4.80;;;0.20;96.60;;;;;;4997161;28;20181;-86
2022/12/19 07:57:19;;;;;;;2.93;2.43;;;0.30;96.50;;;;;;4997348;28;20184;-88
2022/12/19 07:59:45;;;;;;;2.73;2.33;;;0.30;96.40;;;;;;4984125;28;20201;-86
2022/12/19 08:02:11;;;;;;;20.03;5.03;;;0.30;96.40;;;;;;4997608;28;20173;-87
2022/12/19 08:04:37;;;;;;;16.87;4.87;;;0.40;96.50;;;;;;4997120;28;20463;-87
2022/12/19 08:07:03;;;;;;;9.90;4.63;;;0.40;96.50;;;;;;4985618;28;20684;-85
2022/12/19 08:09:28;;;;;;;2.00;1.93;;;0.40;96.30;;;;;;4996441;28;20584;-87
2022/12/19 08:11:54;;;;;;;3.83;3.63;;;0.50;96.10;;;;;;4997809;28;20427;-86
2022/12/19 08:14:20;;;;;;;9.70;5.03;;;0.50;96.10;;;;;;5021044;28;20199;-87
2022/12/19 08:16:45;;;;;;;5.30;2.80;;;0.50;96.20;;;;;;4989768;28;20216;-86
2022/12/19 08:19:11;;;;;;;3.57;2.70;;;0.60;96.00;;;;;;5001595;28;20483;-86
2022/12/19 08:21:36;;;;;;;1.30;1.20;;;0.60;96.00;;;;;;4996430;28;20601;-86
2022/12/19 08:24:02;;;;;;;3.00;2.80;;;0.60;96.20;;;;;;4995075;28;20810;-85
2022/12/19 08:26:28;;;;;;;1.37;1.27;;;0.70;96.20;;;;;;4996036;28;20215;-86
2022/12/19 08:28:55;;;;;;;4.90;4.60;;;0.70;96.50;;;;;;4995479;28;20443;-87
2022/12/19 08:31:23;;;;;;;1.87;1.50;;;0.70;96.50;;;;;;4995384;28;20235;-85
2022/12/19 08:33:49;;;;;;;2.80;1.83;;;0.70;96.50;;;;;;4993891;28;20515;-86
2022/12/19 08:36:19;;;;;;;5.17;3.10;;;0.80;96.60;;;;;;4995985;28;20542;-86
2022/12/19 08:38:45;;;;;;;3.70;3.60;;;0.80;96.80;;;;;;4992162;28;20473;-85
2022/12/19 08:41:11;;;;;;;1.53;1.43;;;0.80;96.80;;;;;;4982784;28;20416;-87
2022/12/19 08:43:37;;;;;;;3.73;3.57;;;0.80;97.00;;;;;;4994316;28;20793;-83
2022/12/19 08:46:04;;;;;;;1.40;1.30;;;0.90;97.20;;;;;;4995017;28;20456;-85
2022/12/19 08:48:30;;;;;;;2.60;2.40;;;0.90;97.30;;;;;;4989012;28;20444;-86
2022/12/19 08:50:58;;;;;;;8.13;3.63;;;0.90;97.30;;;;;;4977039;28;20919;-87
2022/12/19 08:53:28;;;;;;;2.33;2.13;;;0.90;97.30;;;;;;4995519;28;20420;-85
2022/12/19 08:55:56;;;;;;;8.97;3.77;;;1.00;97.30;;;;;;4983426;28;20433;-86
2022/12/19 08:58:22;;;;;;;4.00;3.23;;;1.00;97.30;;;;;;4970073;28;21020;-86
2022/12/19 09:00:48;;;;;;;3.10;2.27;;;1.00;97.30;;;;;;4995351;28;20424;-86
2022/12/19 09:03:13;;;;;;;4.23;2.80;;;1.00;97.30;;;;;;4996129;28;20494;-86
2022/12/19 09:05:39;;;;;;;2.30;2.10;;;1.00;97.30;;;;;;4995614;28;20211;-87
2022/12/19 09:08:05;;;;;;;5.20;3.23;;;1.10;97.30;;;;;;4995849;28;20231;-88
2022/12/19 09:10:30;;;;;;;4.20;3.50;;;1.10;97.30;;;;;;4976679;28;20178;-88
2022/12/19 09:12:57;;;;;;;7.57;4.60;;;1.10;97.30;;;;;;4977741;28;20169;-89
2022/12/19 09:15:23;;;;;;;6.23;3.60;;;1.10;97.30;;;;;;4989693;28;20191;-89
2022/12/19 09:17:51;;;;;;;4.33;3.07;;;1.10;97.30;;;;;;4993900;28;20550;-89
2022/12/19 09:20:16;;;;;;;2.80;2.60;;;1.20;97.30;;;;;;4983927;28;20708;-89
2022/12/19 09:22:42;;;;;;;9.43;2.67;;;1.20;97.30;;;;;;4997009;28;20420;-89
2022/12/19 09:25:08;;;;;;;2.07;1.93;;;1.20;97.30;;;;;;4980245;28;20228;-88
2022/12/19 09:27:33;;;;;;;1.60;1.50;;;1.20;97.30;;;;;;4990027;28;20236;-89
2022/12/19 09:29:59;;;;;;;4.80;3.17;;;1.20;97.30;;;;;;4991128;28;20451;-90
2022/12/19 09:32:25;;;;;;;2.50;2.37;;;1.20;97.30;;;;;;4984431;28;20546;-89
2022/12/19 09:34:51;;;;;;;6.63;2.30;;;1.20;97.30;;;;;;4983678;28;20189;-89
2022/12/19 09:37:16;;;;;;;3.17;2.97;;;1.20;97.30;;;;;;4996576;28;20419;-89
2022/12/19 09:39:42;;;;;;;3.23;2.37;;;1.20;97.30;;;;;;4992951;28;20228;-90
2022/12/19 09:42:39;;;;;;;2.60;2.40;;;1.20;97.30;;;;;;4997120;28;20177;-90
2022/12/19 09:45:13;;;;;;;2.53;2.33;;;1.20;97.30;;;;;;4987835;28;20304;-90
2022/12/19 09:47:43;;;;;;;2.20;2.00;;;1.20;97.30;;;;;;4996442;28;20424;-89
2022/12/19 09:50:44;;;;;;;3.57;3.37;;;1.20;97.30;;;;;;4984835;28;20505;-90
2022/12/19 09:53:24;;;;;;;2.83;2.60;;;1.20;97.30;;;;;;4988955;28;20415;-90
2022/12/19 09:55:52;;;;;;;2.23;2.07;;;1.20;97.30;;;;;;4997690;28;20431;-91
2022/12/19 09:58:39;;;;;;;4.23;3.10;;;1.20;97.30;;;;;;4997258;28;20447;-90
2022/12/19 10:01:14;;;;;;;5.17;4.80;;;1.20;97.30;;;;;;4984264;28;20815;-90
2022/12/19 10:03:44;;;;;;;5.90;3.43;;;1.10;97.30;;;;;;4979943;28;20424;-90
2022/12/19 10:06:21;;;;;;;8.73;6.83;;;1.10;97.30;;;;;;4978636;28;20453;-89
2022/12/19 10:08:47;;;;;;;4.10;3.43;;;1.00;97.30;;;;;;4980455;28;20529;-89
2022/12/19 10:11:16;;;;;;;8.40;4.37;;;1.00;97.30;;;;;;4983583;28;20432;-89
2022/12/19 10:14:02;;;;;;;7.03;2.80;;;1.00;97.30;;;;;;4995388;28;20444;-89
2022/12/19 10:16:52;;;;;;;4.03;2.07;;;1.00;97.30;;;;;;4980449;28;20417;-88
2022/12/19 10:19:38;;;;;;;4.93;3.23;;;0.90;97.30;;;;;;4986409;28;20450;-87
2022/12/19 10:22:26;;;;;;;22.00;6.10;;;0.90;97.30;;;;;;4989469;28;20415;-87
2022/12/19 10:25:50;;;;;;;6.20;3.90;;;0.90;97.30;;;;;;4995773;28;20985;-87
2022/12/19 10:28:26;;;;;;;12.17;5.53;;;0.90;97.30;;;;;;4958636;28;20955;-87
2022/12/19 10:31:07;;;;;;;7.80;3.80;;;0.90;97.30;;;;;;4987497;28;20451;-86
2022/12/19 10:33:48;;;;;;;2.20;1.93;;;0.90;97.30;;;;;;4994111;28;20495;-86
2022/12/19 10:36:14;;;;;;;4.40;3.47;;;0.90;97.30;;;;;;4980451;28;20420;-86
2022/12/19 10:38:49;;;;;;;3.63;2.23;;;0.90;97.30;;;;;;4992837;28;20455;-86
2022/12/19 10:41:23;;;;;;;2.40;2.20;;;0.90;97.30;;;;;;4992530;28;20670;-86
2022/12/19 10:44:05;;;;;;;3.37;2.63;;;0.90;97.30;;;;;;4993208;28;20958;-86
2022/12/19 10:46:40;;;;;;;5.03;2.17;;;0.90;97.30;;;;;;4983056;28;20416;-86
2022/12/19 10:49:21;;;;;;;3.10;2.00;;;0.90;97.30;;;;;;4990227;28;20805;-86
2022/12/19 10:52:07;;;;;;;5.10;4.80;;;0.90;97.30;;;;;;4985610;28;20459;-86
2022/12/19 10:54:41;;;;;;;4.87;2.80;;;1.00;97.30;;;;;;5003594;28;20461;-86
2022/12/19 10:57:25;;;;;;;5.80;3.40;;;1.00;97.30;;;;;;4990741;28;20432;-86
2022/12/19 11:00:15;;;;;;;10.23;3.70;;;1.00;97.30;;;;;;5011105;28;20501;-87
2022/12/19 11:02:44;;;;;;;5.67;4.23;;;1.00;97.30;;;;;;4993289;28;20424;-86
2022/12/19 11:05:26;;;;;;;5.93;4.83;;;1.00;97.30;;;;;;4981270;28;20981;-86
2022/12/19 11:08:06;;;;;;;3.90;2.57;;;1.00;97.30;;;;;;5010284;28;20428;-87
2022/12/19 11:10:50;;;;;;;3.27;1.93;;;1.00;97.30;;;;;;4992940;28;20940;-87
2022/12/19 11:13:40;;;;;;;5.37;3.57;;;1.00;97.30;;;;;;4992968;28;21033;-87
2022/12/19 11:16:06;;;;;;;4.47;4.17;;;1.00;97.30;;;;;;4992877;28;20456;-86
2022/12/19 11:18:37;;;;;;;8.20;3.93;;;1.10;97.30;;;;;;4992505;28;20470;-87
2022/12/19 11:21:11;;;;;;;7.40;2.53;;;1.10;97.30;;;;;;4993032;28;20419;-86
2022/12/19 11:23:47;;;;;;;3.83;3.50;;;1.10;97.30;;;;;;4980685;28;20438;-88
2022/12/19 11:26:28;;;;;;;5.30;4.60;;;1.10;97.30;;;;;;4991767;28;20545;-86
2022/12/19 11:29:00;;;;;;;6.10;4.60;;;1.10;97.30;;;;;;4992820;28;20491;-86
2022/12/19 11:31:28;;;;;;;3.73;2.90;;;1.20;97.30;;;;;;4992839;28;20812;-86
2022/12/19 11:34:02;;;;;;;8.87;3.00;;;1.20;97.30;;;;;;4993432;28;20432;-86
2022/12/19 11:36:46;;;;;;;4.33;2.20;;;1.20;97.30;;;;;;4993638;28;20896;-86
2022/12/19 11:41:52;;;;;;;5.90;3.40;;;1.20;97.30;;;;;;5034791;23;20527;-91
2022/12/19 11:44:45;;;;;;;15.47;5.70;;;1.30;97.30;;;;;;4994384;28;20510;-91
2022/12/19 11:47:38;;;;;;;4.60;3.40;;;1.30;97.30;;;;;;4994801;28;20447;-91
2022/12/19 11:50:47;;;;;;;1.73;1.63;;;1.30;97.30;;;;;;4988236;28;20527;-91
2022/12/19 11:53:22;;;;;;;8.07;3.70;;;1.30;97.30;;;;;;4995168;28;20435;-91
2022/12/19 11:55:53;;;;;;;4.63;4.27;;;1.30;97.30;;;;;;5012261;28;20419;-91
2022/12/19 11:58:19;;;;;;;7.87;4.10;;;1.40;97.30;;;;;;4997497;28;20442;-91
2022/12/19 12:00:59;;;;;;;7.23;3.43;;;1.40;97.30;;;;;;5006508;28;20743;-91
2022/12/19 12:03:48;;;;;;;2.40;1.90;;;1.40;97.30;;;;;;5005944;28;20420;-91
2022/12/19 12:06:16;;;;;;;3.80;2.97;;;1.40;97.30;;;;;;4992283;28;20465;-91
2022/12/19 12:09:18;;;;;;;6.50;4.90;;;1.40;97.30;;;;;;4993793;28;20422;-91
2022/12/19 12:12:10;;;;;;;3.77;3.57;;;1.40;97.30;;;;;;4981059;28;20562;-91
2022/12/19 12:14:54;;;;;;;3.43;2.53;;;1.40;97.30;;;;;;4994290;28;20431;-91
2022/12/19 12:17:19;;;;;;;4.90;4.57;;;1.40;97.30;;;;;;4994132;28;20416;-91
2022/12/19 12:20:02;;;;;;;3.87;3.50;;;1.40;97.30;;;;;;4994146;28;20440;-91
2022/12/19 12:23:12;;;;;;;3.00;2.80;;;1.50;97.30;;;;;;4993766;28;20228;-90
2022/12/19 12:25:59;;;;;;;4.40;3.37;;;1.50;97.30;;;;;;4937229;28;20469;-90
2022/12/19 12:28:31;;;;;;;13.07;3.23;;;1.50;97.30;;;;;;5017000;28;20509;-90
2022/12/19 12:31:22;;;;;;;3.13;2.40;;;1.50;97.30;;;;;;4994142;28;20950;-89
2022/12/19 12:34:14;;;;;;;5.70;5.20;;;1.50;97.30;;;;;;4994451;28;20416;-90
2022/12/19 12:36:39;;;;;;;3.87;2.87;;;1.60;97.30;;;;;;4961129;28;20420;-90
2022/12/19 12:39:33;;;;;;;3.30;3.10;;;1.60;97.30;;;;;;4995859;28;20434;-90
2022/12/19 12:42:26;;;;;;;13.93;3.50;;;1.60;97.30;;;;;;5017377;28;20185;-90
2022/12/19 12:44:57;;;;;;;6.13;5.50;;;1.60;97.30;;;;;;5014098;28;20467;-90
2022/12/19 12:47:24;;;;;;;5.53;4.80;;;1.60;97.30;;;;;;4996832;28;20487;-90
2022/12/19 12:50:07;;;;;;;3.50;3.30;;;1.70;97.30;;;;;;4996496;28;20454;-90
2022/12/19 12:52:33;;;;;;;3.77;3.57;;;1.70;97.30;;;;;;4997272;28;20458;-90
2022/12/19 12:55:00;;;;;;;4.57;4.27;;;1.70;97.30;;;;;;4996422;28;20440;-90
2022/12/19 12:57:25;;;;;;;3.40;2.70;;;1.70;97.30;;;;;;4996284;28;20964;-90
2022/12/19 13:00:14;;;;;;;4.60;3.10;;;1.70;97.30;;;;;;4995843;28;20439;-90
2022/12/19 13:02:40;;;;;;;4.23;3.97;;;1.70;97.30;;;;;;5014184;28;20816;-90
2022/12/19 13:05:44;;;;;;;5.83;3.40;;;1.70;97.30;;;;;;5003017;28;20463;-90
2022/12/19 13:08:43;;;;;;;3.10;2.90;;;1.80;97.30;;;;;;5009647;28;20424;-90
2022/12/19 13:14:43;;;;;;;4.03;2.90;;;1.80;97.30;;;;;;4933906;29;20526;-90
2022/12/19 13:17:18;;;;;;;4.53;4.17;;;1.80;97.30;;;;;;4931028;29;20479;-90
2022/12/19 13:19:56;;;;;;;2.37;1.60;;;1.80;97.30;;;;;;4955145;28;20836;-90
2022/12/19 13:22:27;;;;;;;3.20;2.50;;;1.80;97.30;;;;;;4992274;28;21062;-90